• Join FlightAware (Why Join?)
  • Login
  • US Flag 
05:00AM EDT


 

Airport Tracker/Info


-or-


 

Live Flight TrackerFlight Track Log ✈ ASQ6044 ✈ 21-Jul-2013 ✈ KORD - KLNK

Flight Track Log - Related Links

Times and Time Zones

All times are in EDT time to prevent confusion due to time zone crossing. See the ASQ6044 flight status page for this flight to view local times or setup timezone preferences in your user account.

Time Position Orientation Groundspeed Altitude Reporting Facility
EDT Latitude Longitude Course Direction KTS MPH feet Rate Location/Type
06:57PM 41.8786 -87.9764 261° West 206 237 4,700  Level Chicago Center
06:59PM 41.9196 -88.4019 255° West  Level FlightAware Approximate
06:59PM 41.8061 -88.1294 238° Southwest 268 308 10,000  Level Chicago Center
07:00PM 41.9094 -88.5289 261° West  Level FlightAware Approximate
07:00PM 41.8056 -88.2356 270° West 284 327 11,800  Level Chicago Center
07:01PM 41.8945 -88.6556 261° West  Level FlightAware Approximate
07:01PM 41.8006 -88.3853 260° West 336 387 12,500  Level Chicago Center
07:02PM 41.8792 -88.7863 261° West  Level FlightAware Approximate
07:02PM 41.7946 -88.3823 255° West  Level Estimated
07:02PM 41.7981 -88.5253 269° West 373 429 13,900  Level Chicago Center
07:03PM 41.8643 -88.9169 261° West  Level FlightAware Approximate
07:03PM 41.7947 -88.6653 268° West 379 436 15,300  Level Chicago Center
07:04PM 41.8492 -89.0475 261° West  Level FlightAware Approximate
07:05PM 41.7919 -88.8044 269° West 378 435 16,400  Level Chicago Center
07:06PM 41.7886 -88.9453 268° West 383 441 17,500 960 Climbing Chicago Center
07:07PM 41.7836 -89.1192 268° West 392 451 18,500 1,020 Climbing Chicago Center
07:08PM 41.7792 -89.2644 268° West 394 453 19,700 720 Climbing Chicago Center
07:09PM 41.8191 -89.2962 260° West  Level FlightAware Approximate
07:09PM 41.7758 -89.4100 268° West 394 453 20,000  Level Chicago Center
07:10PM 41.8026 -89.4264 260° West  Level FlightAware Approximate
07:10PM 41.7644 -89.5822 265° West 414 476 21,200  Level Chicago Center
07:11PM 41.7219 -89.7167 247° West 399 459 22,000 480 Climbing Chicago Center
07:12PM 41.6811 -89.8531 248° West 396 456 22,200 720 Climbing Chicago Center
07:13PM 41.6414 -89.9872 248° West 391 450 23,500 1,260 Climbing Chicago Center
07:14PM 41.6072 -90.1217 251° West 389 448 24,900 1,260 Climbing Chicago Center
07:15PM 41.5975 -90.2586 265° West 377 434 26,200 1,380 Climbing Chicago Center
07:16PM 41.5819 -90.4275 263° West 379 436 27,800 1,320 Climbing Chicago Center
07:17PM 41.5700 -90.5642 263° West 373 429 29,000 1,140 Climbing Chicago Center
07:18PM 41.5575 -90.7111 264° West 374 430 30,200 1,140 Climbing Chicago Center
07:19PM 41.5450 -90.8492 263° West 376 433 31,400 1,140 Climbing Chicago Center
07:20PM 41.5319 -90.9883 263° West 378 435 32,600 1,140 Climbing Chicago Center
07:21PM 41.5194 -91.1250 263° West 374 430 33,800 660 Climbing Chicago Center
07:22PM 41.5047 -91.2853 263° West 380 437 34,000 60 Climbing Chicago Center
07:23PM 41.4889 -91.4411 262° West 401 461 34,000  Level Chicago Center
07:24PM 41.4744 -91.5917 263° West 410 472 34,000  Level Chicago Center
07:25PM 41.4606 -91.7378 263° West 402 463 34,000  Level Chicago Center
07:26PM 41.4464 -91.8817 263° West 396 456 34,000  Level Chicago Center
07:27PM 41.4317 -92.0258 262° West 394 453 34,000  Level Chicago Center
07:28PM 41.4172 -92.1736 263° West 403 464 34,000  Level Chicago Center
07:29PM 41.3975 -92.3558 262° West 415 478 34,000  Level Chicago Center
07:30PM 41.3814 -92.5072 262° West 420 483 34,000  Level Chicago Center
07:31PM 41.3647 -92.6572 262° West 418 481 34,000  Level Chicago Center
07:32PM 41.3481 -92.8131 262° West 424 488 34,000  Level Chicago Center
07:33PM 41.3286 -92.9958 262° West 422 486 34,000  Level Chicago Center
07:35PM 41.3122 -93.1453 262° West 417 480 34,000  Level Chicago Center
07:36PM 41.2950 -93.2975 261° West 420 483 34,000  Level Chicago Center
07:37PM 41.2786 -93.4475 262° West 417 480 34,000  Level Chicago Center
07:38PM 41.2617 -93.5981 262° West 417 480 34,000  Level Chicago Center
07:39PM 41.2128 -93.7694 249° West 421 484 34,000  Level Chicago Center
07:40PM 41.1669 -93.9083 246° West 418 481 34,000 -120 Level Chicago Center
07:41PM 41.1208 -94.0500 247° West 422 486 33,800 -600 Descending Chicago Center
07:42PM 41.0756 -94.1919 247° West 421 484 32,800 -1,080 Descending Chicago Center
07:43PM 41.0189 -94.3583 246° West 419 482 31,600 -1,020 Descending Chicago Center
07:44PM 40.9722 -94.4961 246° West 417 480 30,700 -1,440 Descending Chicago Center
07:45PM 40.9117 -94.6789 246° West 416 479 28,300 -1,920 Descending Minneapolis Center
07:46PM 40.9036 -94.7475 261° West 415 478 27,200 -2,100 Descending Minneapolis Center
07:46PM 40.8686 -94.8656 249° West 406 467 25,500 -2,040 Descending Minneapolis Center
07:47PM 40.8394 -94.9617 248° West 407 468 24,200 -1,980 Descending Minneapolis Center
07:48PM 40.8167 -95.1092 259° West 408 470 22,100 -2,040 Descending Minneapolis Center
07:49PM 40.7922 -95.2531 257° West 403 464 20,100 -2,040 Descending Minneapolis Center
07:50PM 40.7839 -95.3989 266° West 399 459 17,900 -2,100 Descending Minneapolis Center
07:51PM 40.7797 -95.5425 268° West 395 455 15,800 -2,280 Descending Minneapolis Center
07:52PM 40.7964 -95.7078 278° West 381 438 13,300 -2,040 Descending Minneapolis Center
07:53PM 40.7956 -95.8450 270° West 375 432 11,700 -1,140 Descending Minneapolis Center
07:54PM 40.7986 -95.9706 272° West 354 407 11,000 -660 Descending Minneapolis Center
07:55PM 40.8303 -96.0678 293° West 296 341 10,400 -1,020 Descending Minneapolis Center
07:56PM 40.8528 -96.1608 288° West 273 314 8,900 -1,500 Descending Minneapolis Center
07:57PM 40.8819 -96.2472 294° West 261 300 7,300 -840 Descending Minneapolis Center
07:59PM 40.9122 -96.3497 291° West 239 275 7,100 -480 Descending Minneapolis Center
08:00PM 40.9383 -96.4333 292° West 251 289 6,400 -1,380 Descending Minneapolis Center
08:01PM 40.9364 -96.5347 269° West 247 284 4,400 -1,740 Descending Minneapolis Center
08:02PM 40.9344 -96.6092 268° West 251 289 3,100 -720 Descending Minneapolis Center
08:03PM 40.9453 -96.6983 279° West 241 277 3,000 -120 Descending Minneapolis Center